createdAt,value
2023-04-22T00:00:54.149Z,500.00
2023-04-22T00:01:54.178Z,500.00
2023-04-22T00:02:54.694Z,440.00
2023-04-22T00:03:54.955Z,400.00
2023-04-22T00:04:54.868Z,400.00
2023-04-22T00:05:54.738Z,400.00
2023-04-22T00:06:54.605Z,400.00
2023-04-22T00:07:54.621Z,428.00
2023-04-22T00:08:54.597Z,439.00
2023-04-22T00:09:54.602Z,468.00
2023-04-22T00:10:54.601Z,500.00
2023-04-22T00:11:54.646Z,500.00
2023-04-22T00:12:54.712Z,503.00
2023-04-22T00:13:54.745Z,500.00
2023-04-22T00:14:54.791Z,503.00
2023-04-22T00:15:54.926Z,507.00
2023-04-22T00:16:54.898Z,500.00
2023-04-22T00:17:55.003Z,506.00
2023-04-22T00:18:55.014Z,514.00
2023-04-22T00:19:55.062Z,505.00
2023-04-22T00:20:55.132Z,503.00
2023-04-22T00:21:55.195Z,520.00
2023-04-22T00:22:55.236Z,497.00
2023-04-22T00:23:55.297Z,516.00
2023-04-22T00:24:55.355Z,501.00
2023-04-22T00:25:55.585Z,505.00
2023-04-22T00:26:55.450Z,505.00
2023-04-22T00:27:55.505Z,509.00
2023-04-22T00:28:55.586Z,501.00
2023-04-22T00:29:55.620Z,509.00
2023-04-22T00:30:55.743Z,507.00
2023-04-22T00:31:55.814Z,504.00
2023-04-22T00:32:55.835Z,506.00
2023-04-22T00:33:55.835Z,512.00
2023-04-22T00:34:55.882Z,515.00
2023-04-22T00:35:55.948Z,500.00
2023-04-22T00:36:55.995Z,503.00
2023-04-22T00:37:56.054Z,505.00
2023-04-22T00:38:56.101Z,508.00
2023-04-22T00:39:56.163Z,507.00
2023-04-22T00:40:56.216Z,513.00
2023-04-22T00:41:56.277Z,518.00
2023-04-22T00:42:56.336Z,509.00
2023-04-22T00:43:56.380Z,513.00
2023-04-22T00:44:56.453Z,500.00
2023-04-22T00:45:56.487Z,507.00
2023-04-22T00:46:56.558Z,509.00
2023-04-22T00:47:56.647Z,521.00
2023-04-22T00:48:56.634Z,517.00
2023-04-22T00:49:56.710Z,504.00
2023-04-22T00:50:56.759Z,514.00
2023-04-22T00:51:56.811Z,509.00
2023-04-22T00:52:56.861Z,503.00
2023-04-22T00:53:56.905Z,508.00
2023-04-22T00:54:56.975Z,502.00
2023-04-22T00:55:57.023Z,500.00
2023-04-22T00:56:57.080Z,501.00
2023-04-22T00:57:57.139Z,503.00
2023-04-22T00:58:57.194Z,508.00
2023-04-22T00:59:57.252Z,513.00
2023-04-22T01:00:57.376Z,517.00
2023-04-22T01:01:57.432Z,510.00
2023-04-22T01:02:57.570Z,511.00
2023-04-22T01:03:57.556Z,514.00
2023-04-22T01:04:57.536Z,512.00
2023-04-22T01:05:57.612Z,513.00
2023-04-22T01:06:57.650Z,505.00
2023-04-22T01:07:57.782Z,502.00
2023-04-22T01:08:57.756Z,515.00
2023-04-22T01:09:57.797Z,515.00
2023-04-22T01:10:57.863Z,517.00
2023-04-22T01:11:57.915Z,505.00
2023-04-22T01:12:57.967Z,512.00
2023-04-22T01:13:58.594Z,505.00
2023-04-22T01:14:58.086Z,510.00
2023-04-22T01:15:58.151Z,510.00
2023-04-22T01:16:58.324Z,513.00
2023-04-22T01:17:58.300Z,511.00
2023-04-22T01:18:58.313Z,512.00
2023-04-22T01:19:58.378Z,516.00
2023-04-22T01:20:58.459Z,529.00
2023-04-22T01:21:58.499Z,518.00
2023-04-22T01:22:58.577Z,519.00
2023-04-22T01:23:58.628Z,514.00
2023-04-22T01:24:58.679Z,511.00
2023-04-22T01:25:58.734Z,522.00
2023-04-22T01:26:58.791Z,508.00
2023-04-22T01:27:58.850Z,509.00
2023-04-22T01:28:58.908Z,512.00
2023-04-22T01:29:58.969Z,504.00
2023-04-22T01:30:59.017Z,520.00
2023-04-22T01:31:59.127Z,517.00
2023-04-22T01:32:59.187Z,503.00
2023-04-22T01:33:59.198Z,512.00
2023-04-22T01:34:59.684Z,502.00
2023-04-22T01:35:59.650Z,509.00
2023-04-22T01:36:59.657Z,518.00
2023-04-22T01:37:59.648Z,509.00
2023-04-22T01:38:59.649Z,522.00
2023-04-22T01:40:00.151Z,512.00
2023-04-22T01:40:59.701Z,511.00
2023-04-22T01:41:59.662Z,517.00
2023-04-22T01:42:59.710Z,505.00
2023-04-22T01:43:59.768Z,511.00
2023-04-22T01:44:59.850Z,513.00
2023-04-22T01:45:59.911Z,513.00
2023-04-22T01:46:59.941Z,520.00
2023-04-22T01:48:00.047Z,513.00
2023-04-22T01:49:00.092Z,512.00
2023-04-22T01:50:00.134Z,519.00
2023-04-22T01:51:00.173Z,512.00
2023-04-22T01:52:00.232Z,517.00
2023-04-22T01:53:00.655Z,508.00
2023-04-22T01:54:00.657Z,514.00
2023-04-22T01:55:00.652Z,499.00
2023-04-22T01:56:00.647Z,504.00
2023-04-22T01:57:00.652Z,525.00
2023-04-22T01:58:00.651Z,505.00
2023-04-22T01:59:00.652Z,518.00
2023-04-22T02:00:00.687Z,510.00
2023-04-22T02:01:00.730Z,508.00
2023-04-22T02:02:00.909Z,512.00
2023-04-22T02:03:00.891Z,509.00
2023-04-22T02:04:00.895Z,511.00
2023-04-22T02:05:00.958Z,522.00
2023-04-22T02:06:00.978Z,513.00
2023-04-22T02:07:01.025Z,518.00
2023-04-22T02:08:01.091Z,512.00
2023-04-22T02:09:01.140Z,519.00
2023-04-22T02:10:01.204Z,507.00
2023-04-22T02:11:08.121Z,525.00
2023-04-22T02:12:01.641Z,526.00
2023-04-22T02:13:01.247Z,522.00
2023-04-22T02:14:01.234Z,516.00
2023-04-22T02:15:01.235Z,517.00
2023-04-22T02:16:01.296Z,518.00
2023-04-22T02:17:01.214Z,519.00
2023-04-22T02:18:01.210Z,506.00
2023-04-22T02:19:01.215Z,505.00
2023-04-22T02:20:01.268Z,500.00
2023-04-22T02:21:01.216Z,509.00
2023-04-22T02:22:01.183Z,515.00
2023-04-22T02:23:01.202Z,509.00
2023-04-22T02:24:01.262Z,506.00
2023-04-22T02:25:01.329Z,506.00
2023-04-22T02:26:02.137Z,519.00
2023-04-22T02:27:01.448Z,510.00
2023-04-22T02:28:01.497Z,511.00
2023-04-22T02:29:01.547Z,513.00
2023-04-22T02:30:01.675Z,507.00
2023-04-22T02:31:01.730Z,516.00
2023-04-22T02:32:01.727Z,520.00
2023-04-22T02:33:01.885Z,510.00
2023-04-22T02:34:01.834Z,504.00
2023-04-22T02:35:01.898Z,514.00
2023-04-22T02:36:01.951Z,506.00
2023-04-22T02:37:02.038Z,504.00
2023-04-22T02:38:02.058Z,518.00
2023-04-22T02:39:02.629Z,510.00
2023-04-22T02:40:02.639Z,519.00
2023-04-22T02:41:03.149Z,522.00
2023-04-22T02:42:02.287Z,511.00
2023-04-22T02:43:02.328Z,517.00
2023-04-22T02:44:02.393Z,511.00
2023-04-22T02:45:02.444Z,515.00
2023-04-22T02:46:02.508Z,510.00
2023-04-22T02:47:02.616Z,507.00
2023-04-22T02:48:02.649Z,514.00
2023-04-22T02:49:02.672Z,510.00
2023-04-22T02:50:05.678Z,521.00
2023-04-22T02:51:02.721Z,512.00
2023-04-22T02:52:02.717Z,507.00
2023-04-22T02:53:02.728Z,503.00
2023-04-22T02:54:02.696Z,523.00
2023-04-22T02:55:02.692Z,506.00
2023-04-22T02:56:02.689Z,515.00
2023-04-22T02:57:02.675Z,519.00
2023-04-22T02:58:02.672Z,514.00
2023-04-22T02:59:02.675Z,512.00
2023-04-22T03:00:02.656Z,506.00
2023-04-22T03:01:02.694Z,515.00
2023-04-22T03:02:05.118Z,509.00
2023-04-22T03:03:02.804Z,510.00
2023-04-22T03:04:02.989Z,511.00
2023-04-22T03:05:02.629Z,509.00
2023-04-22T03:06:02.656Z,504.00
2023-04-22T03:07:02.608Z,513.00
2023-04-22T03:08:02.608Z,517.00
2023-04-22T03:09:02.628Z,508.00
2023-04-22T03:10:02.603Z,514.00
2023-04-22T03:11:02.622Z,506.00
2023-04-22T03:12:02.653Z,507.00
2023-04-22T03:13:02.677Z,507.00
2023-04-22T03:14:02.735Z,516.00
2023-04-22T03:15:02.797Z,516.00
2023-04-22T03:16:02.880Z,504.00
2023-04-22T03:17:03.112Z,504.00
2023-04-22T03:18:02.997Z,516.00
2023-04-22T03:19:03.057Z,508.00
2023-04-22T03:20:03.095Z,515.00
2023-04-22T03:21:03.160Z,509.00
2023-04-22T03:22:03.217Z,516.00
2023-04-22T03:23:03.283Z,503.00
2023-04-22T03:24:03.343Z,509.00
2023-04-22T03:25:03.403Z,515.00
2023-04-22T03:26:03.437Z,517.00
2023-04-22T03:27:03.501Z,516.00
2023-04-22T03:28:04.199Z,509.00
2023-04-22T03:29:03.650Z,514.00
2023-04-22T03:30:03.686Z,514.00
2023-04-22T03:31:03.720Z,512.00
2023-04-22T03:32:03.805Z,525.00
2023-04-22T03:33:03.925Z,509.00
2023-04-22T03:34:03.911Z,508.00
2023-04-22T03:35:03.944Z,512.00
2023-04-22T03:36:04.001Z,503.00
2023-04-22T03:37:04.065Z,500.00
2023-04-22T03:38:04.106Z,511.00
2023-04-22T03:39:04.176Z,516.00
2023-04-22T03:40:04.227Z,514.00
2023-04-22T03:41:04.311Z,518.00
2023-04-22T03:42:04.397Z,524.00
2023-04-22T03:43:05.157Z,509.00
2023-04-22T03:44:04.466Z,515.00
2023-04-22T03:45:05.161Z,513.00
2023-04-22T03:46:04.725Z,517.00
2023-04-22T03:47:04.646Z,502.00
2023-04-22T03:48:04.783Z,523.00
2023-04-22T03:49:04.761Z,519.00
2023-04-22T03:50:04.843Z,508.00
2023-04-22T03:51:04.879Z,509.00
2023-04-22T03:52:04.932Z,511.00
2023-04-22T03:53:04.983Z,518.00
2023-04-22T03:54:05.049Z,521.00
2023-04-22T03:55:05.724Z,507.00
2023-04-22T03:56:05.173Z,509.00
2023-04-22T03:57:05.244Z,509.00
2023-04-22T03:58:05.282Z,507.00
2023-04-22T03:59:05.724Z,505.00
2023-04-22T04:00:06.178Z,508.00
2023-04-22T04:01:05.728Z,508.00
2023-04-22T04:02:05.809Z,505.00
2023-04-22T04:03:06.454Z,519.00
2023-04-22T04:04:06.388Z,505.00
2023-04-22T04:05:06.834Z,515.00
2023-04-22T04:06:06.342Z,508.00
2023-04-22T04:07:05.786Z,524.00
2023-04-22T04:08:05.852Z,517.00
2023-04-22T04:09:05.919Z,510.00
2023-04-22T04:10:05.964Z,516.00
2023-04-22T04:11:06.019Z,516.00
2023-04-22T04:12:06.071Z,521.00
2023-04-22T04:13:06.757Z,500.00
2023-04-22T04:14:07.168Z,521.00
2023-04-22T04:15:06.249Z,508.00
2023-04-22T04:16:06.374Z,506.00
2023-04-22T04:17:06.742Z,513.00
2023-04-22T04:18:06.769Z,524.00
2023-04-22T04:19:06.733Z,501.00
2023-04-22T04:20:06.730Z,511.00
2023-04-22T04:21:06.741Z,513.00
2023-04-22T04:22:06.733Z,508.00
2023-04-22T04:23:06.729Z,509.00
2023-04-22T04:24:06.766Z,515.00
2023-04-22T04:25:06.841Z,509.00
2023-04-22T04:26:07.182Z,510.00
2023-04-22T04:27:06.925Z,514.00
2023-04-22T04:28:07.673Z,519.00
2023-04-22T04:29:07.068Z,510.00
2023-04-22T04:30:07.096Z,512.00
2023-04-22T04:31:07.253Z,512.00
2023-04-22T04:32:07.191Z,514.00
2023-04-22T04:33:07.477Z,516.00
2023-04-22T04:34:07.308Z,514.00
2023-04-22T04:35:07.376Z,519.00
2023-04-22T04:36:07.421Z,523.00
2023-04-22T04:37:07.482Z,525.00
2023-04-22T04:38:07.527Z,512.00
2023-04-22T04:39:07.587Z,521.00
2023-04-22T04:40:07.665Z,518.00
2023-04-22T04:41:07.695Z,524.00
2023-04-22T04:42:07.742Z,520.00
2023-04-22T04:43:07.865Z,505.00
2023-04-22T04:44:08.677Z,507.00
2023-04-22T04:45:07.941Z,523.00
2023-04-22T04:46:08.036Z,512.00
2023-04-22T04:47:08.023Z,516.00
2023-04-22T04:48:08.186Z,514.00
2023-04-22T04:49:08.152Z,522.00
2023-04-22T04:50:07.191Z,515.00
2023-04-22T04:51:08.230Z,503.00
2023-04-22T04:52:08.297Z,511.00
2023-04-22T04:53:08.344Z,516.00
2023-04-22T04:54:08.386Z,516.00
2023-04-22T04:55:08.450Z,509.00
2023-04-22T04:56:08.507Z,515.00
2023-04-22T04:57:08.548Z,514.00
2023-04-22T04:58:08.595Z,521.00
2023-04-22T04:59:08.653Z,509.00
2023-04-22T05:00:08.710Z,507.00
2023-04-22T05:01:08.897Z,525.00
2023-04-22T05:02:08.992Z,524.00
2023-04-22T05:03:08.974Z,520.00
2023-04-22T05:04:09.071Z,518.00
2023-04-22T05:05:09.061Z,511.00
2023-04-22T05:06:09.033Z,525.00
2023-04-22T05:07:09.083Z,519.00
2023-04-22T05:08:09.155Z,521.00
2023-04-22T05:09:09.200Z,512.00
2023-04-22T05:10:09.249Z,517.00
2023-04-22T05:11:09.299Z,514.00
2023-04-22T05:12:09.357Z,525.00
2023-04-22T05:13:09.410Z,518.00
2023-04-22T05:14:09.458Z,515.00
2023-04-22T05:15:09.519Z,510.00
2023-04-22T05:16:09.623Z,514.00
2023-04-22T05:17:09.649Z,519.00
2023-04-22T05:18:09.707Z,517.00
2023-04-22T05:19:09.734Z,513.00
2023-04-22T05:20:09.798Z,507.00
2023-04-22T05:21:09.875Z,521.00
2023-04-22T05:22:09.898Z,534.00
2023-04-22T05:23:09.962Z,516.00
2023-04-22T05:24:10.696Z,509.00
2023-04-22T05:25:10.064Z,510.00
2023-04-22T05:26:10.113Z,508.00
2023-04-22T05:27:10.704Z,516.00
2023-04-22T05:28:11.197Z,517.00
2023-04-22T05:29:11.198Z,511.00
2023-04-22T05:30:10.361Z,521.00
2023-04-22T05:31:10.402Z,511.00
2023-04-22T05:32:10.485Z,517.00
2023-04-22T05:33:10.603Z,521.00
2023-04-22T05:34:10.567Z,520.00
2023-04-22T05:35:11.250Z,522.00
2023-04-22T05:36:10.686Z,507.00
2023-04-22T05:37:11.779Z,520.00
2023-04-22T05:38:13.703Z,520.00
2023-04-22T05:39:10.809Z,515.00
2023-04-22T05:40:10.781Z,514.00
2023-04-22T05:41:10.770Z,515.00
2023-04-22T05:42:11.809Z,506.00
2023-04-22T05:43:10.765Z,527.00
2023-04-22T05:44:10.763Z,524.00
2023-04-22T05:45:10.746Z,525.00
2023-04-22T05:46:10.769Z,519.00
2023-04-22T05:47:10.727Z,526.00
2023-04-22T05:48:10.785Z,512.00
2023-04-22T05:49:10.853Z,519.00
2023-04-22T05:50:10.767Z,521.00
2023-04-22T05:51:10.827Z,522.00
2023-04-22T05:52:10.883Z,509.00
2023-04-22T05:53:10.957Z,514.00
2023-04-22T05:54:10.999Z,513.00
2023-04-22T05:55:11.082Z,510.00
2023-04-22T05:56:11.113Z,511.00
2023-04-22T05:57:11.211Z,506.00
2023-04-22T05:58:11.225Z,501.00
2023-04-22T05:59:11.279Z,513.00
2023-04-22T06:00:11.755Z,506.00
2023-04-22T06:01:11.783Z,507.00
2023-04-22T06:02:11.852Z,519.00
2023-04-22T06:03:11.956Z,506.00
2023-04-22T06:04:12.017Z,510.00
2023-04-22T06:05:11.950Z,511.00
2023-04-22T06:06:11.810Z,513.00
2023-04-22T06:07:11.793Z,513.00
2023-04-22T06:08:11.792Z,514.00
2023-04-22T06:09:11.863Z,519.00
2023-04-22T06:10:11.903Z,513.00
2023-04-22T06:11:12.213Z,512.00
2023-04-22T06:12:12.027Z,522.00
2023-04-22T06:13:12.084Z,518.00
2023-04-22T06:14:12.150Z,508.00
2023-04-22T06:15:12.229Z,521.00
2023-04-22T06:16:12.296Z,522.00
2023-04-22T06:17:12.312Z,519.00
2023-04-22T06:18:12.382Z,507.00
2023-04-22T06:19:13.216Z,510.00
2023-04-22T06:20:12.491Z,511.00
2023-04-22T06:21:12.745Z,519.00
2023-04-22T06:22:12.602Z,523.00
2023-04-22T06:23:12.649Z,505.00
2023-04-22T06:24:12.710Z,510.00
2023-04-22T06:25:12.766Z,517.00
2023-04-22T06:26:13.224Z,531.00
2023-04-22T06:27:12.865Z,526.00
2023-04-22T06:28:12.912Z,513.00
2023-04-22T06:29:12.970Z,521.00
2023-04-22T06:30:13.036Z,514.00
2023-04-22T06:31:13.129Z,513.00
2023-04-22T06:32:13.137Z,525.00
2023-04-22T06:33:13.221Z,518.00
2023-04-22T06:34:13.280Z,523.00
2023-04-22T06:35:13.295Z,531.00
2023-04-22T06:36:13.358Z,512.00
2023-04-22T06:37:13.441Z,514.00
2023-04-22T06:38:13.468Z,516.00
2023-04-22T06:39:14.234Z,521.00
2023-04-22T06:40:13.636Z,515.00
2023-04-22T06:41:13.635Z,524.00
2023-04-22T06:42:13.709Z,505.00
2023-04-22T06:43:13.773Z,516.00
2023-04-22T06:44:13.820Z,502.00
2023-04-22T06:45:13.877Z,512.00
2023-04-22T06:46:13.971Z,511.00
2023-04-22T06:47:13.998Z,516.00
2023-04-22T06:48:14.061Z,522.00
2023-04-22T06:49:14.110Z,510.00
2023-04-22T06:50:14.171Z,515.00
2023-04-22T06:51:14.244Z,517.00
2023-04-22T06:52:14.290Z,512.00
2023-04-22T06:53:14.379Z,512.00
2023-04-22T06:54:14.396Z,527.00
2023-04-22T06:55:14.453Z,539.00
2023-04-22T06:56:14.527Z,523.00
2023-04-22T06:57:14.588Z,517.00
2023-04-22T06:58:14.641Z,521.00
2023-04-22T06:59:14.705Z,513.00
2023-04-22T07:00:14.761Z,532.00
2023-04-22T07:01:14.826Z,522.00
2023-04-22T07:02:15.047Z,528.00
2023-04-22T07:03:14.967Z,517.00
2023-04-22T07:04:15.057Z,515.00
2023-04-22T07:05:16.113Z,511.00
2023-04-22T07:06:15.086Z,514.00
2023-04-22T07:07:15.142Z,503.00
2023-04-22T07:08:15.193Z,522.00
2023-04-22T07:09:15.263Z,511.00
2023-04-22T07:10:15.291Z,525.00
2023-04-22T07:11:22.128Z,518.00
2023-04-22T07:12:23.015Z,518.00
2023-04-22T07:13:22.123Z,519.00
2023-04-22T07:14:22.138Z,519.00
2023-04-22T07:15:22.548Z,519.00
2023-04-22T07:16:15.528Z,520.00
2023-04-22T07:17:15.512Z,523.00
2023-04-22T07:18:15.510Z,528.00
2023-04-22T07:19:22.122Z,531.00
2023-04-22T07:20:15.526Z,519.00
2023-04-22T07:21:15.532Z,521.00
2023-04-22T07:22:22.124Z,528.00
2023-04-22T07:23:15.492Z,519.00
2023-04-22T07:24:15.496Z,521.00
2023-04-22T07:25:16.389Z,520.00
2023-04-22T07:26:16.139Z,529.00
2023-04-22T07:27:16.375Z,526.00
2023-04-22T07:28:15.471Z,518.00
2023-04-22T07:29:15.446Z,532.00
2023-04-22T07:30:15.449Z,523.00
2023-04-22T07:31:16.125Z,526.00
2023-04-22T07:32:16.379Z,525.00
2023-04-22T07:33:15.414Z,523.00
2023-04-22T07:34:15.410Z,519.00
2023-04-22T07:35:16.368Z,525.00
2023-04-22T07:36:15.401Z,521.00
2023-04-22T07:37:16.379Z,522.00
2023-04-22T07:38:16.380Z,526.00
2023-04-22T07:39:15.416Z,528.00
2023-04-22T07:40:15.473Z,523.00
2023-04-22T07:41:15.556Z,514.00
2023-04-22T07:42:15.587Z,523.00
2023-04-22T07:43:15.668Z,512.00
2023-04-22T07:44:16.076Z,512.00
2023-04-22T07:45:16.115Z,515.00
2023-04-22T07:46:16.150Z,511.00
2023-04-22T07:47:16.155Z,516.00
2023-04-22T07:48:16.127Z,503.00
2023-04-22T07:49:16.122Z,522.00
2023-04-22T07:50:17.003Z,513.00
2023-04-22T07:51:16.119Z,529.00
2023-04-22T07:52:16.388Z,510.00
2023-04-22T07:53:16.223Z,516.00
2023-04-22T07:54:17.002Z,507.00
2023-04-22T07:55:16.342Z,517.00
2023-04-22T07:56:17.014Z,518.00
2023-04-22T07:57:16.475Z,515.00
2023-04-22T07:58:16.504Z,507.00
2023-04-22T07:59:16.563Z,520.00
2023-04-22T08:00:17.005Z,523.00
2023-04-22T08:01:19.855Z,515.00
2023-04-22T08:02:17.115Z,515.00
2023-04-22T08:03:17.305Z,516.00
2023-04-22T08:04:17.460Z,515.00
2023-04-22T08:05:17.047Z,515.00
2023-04-22T08:06:17.389Z,516.00
2023-04-22T08:07:32.500Z,520.00
2023-04-22T08:08:17.019Z,521.00
2023-04-22T08:09:17.010Z,521.00
2023-04-22T08:10:16.967Z,520.00
2023-04-22T08:11:16.969Z,523.00
2023-04-22T08:12:16.968Z,516.00
2023-04-22T08:13:18.303Z,515.00
2023-04-22T08:14:16.594Z,529.00
2023-04-22T08:15:16.587Z,519.00
2023-04-22T08:16:16.604Z,521.00
2023-04-22T08:17:16.574Z,519.00
2023-04-22T08:18:16.568Z,533.00
2023-04-22T08:19:16.573Z,525.00
2023-04-22T08:20:16.568Z,520.00
2023-04-22T08:21:16.551Z,520.00
2023-04-22T08:22:16.533Z,515.00
2023-04-22T08:23:16.526Z,515.00
2023-04-22T08:24:16.520Z,514.00
2023-04-22T08:25:16.516Z,518.00
2023-04-22T08:26:16.507Z,509.00
2023-04-22T08:27:16.505Z,522.00
2023-04-22T08:28:17.402Z,515.00
2023-04-22T08:29:16.512Z,512.00
2023-04-22T08:30:16.479Z,510.00
2023-04-22T08:31:17.032Z,508.00
2023-04-22T08:32:16.460Z,517.00
2023-04-22T08:33:16.505Z,513.00
2023-04-22T08:34:16.573Z,515.00
2023-04-22T08:35:17.006Z,504.00
2023-04-22T08:36:17.016Z,513.00
2023-04-22T08:37:17.012Z,514.00
2023-04-22T08:38:17.015Z,511.00
2023-04-22T08:39:17.013Z,520.00
2023-04-22T08:40:17.014Z,509.00
2023-04-22T08:41:17.017Z,522.00
2023-04-22T08:42:17.051Z,515.00
2023-04-22T08:43:17.120Z,522.00
2023-04-22T08:44:17.188Z,511.00
2023-04-22T08:45:17.253Z,515.00
2023-04-22T08:46:17.464Z,516.00
2023-04-22T08:47:17.354Z,516.00
2023-04-22T08:48:17.411Z,524.00
2023-04-22T08:49:17.496Z,511.00
2023-04-22T08:50:17.543Z,519.00
2023-04-22T08:51:17.908Z,518.00
2023-04-22T08:52:17.657Z,533.00
2023-04-22T08:53:17.716Z,517.00
2023-04-22T08:54:17.781Z,524.00
2023-04-22T08:55:17.837Z,516.00
2023-04-22T08:56:17.905Z,513.00
2023-04-22T08:57:17.962Z,520.00
2023-04-22T08:58:18.019Z,530.00
2023-04-22T08:59:18.091Z,526.00
2023-04-22T09:00:18.140Z,514.00
2023-04-22T09:01:18.240Z,519.00
2023-04-22T09:02:18.916Z,528.00
2023-04-22T09:03:19.009Z,506.00
2023-04-22T09:04:19.066Z,515.00
2023-04-22T09:05:18.445Z,521.00
2023-04-22T09:06:18.484Z,526.00
2023-04-22T09:07:18.539Z,526.00
2023-04-22T09:08:18.607Z,521.00
2023-04-22T09:09:19.410Z,519.00
2023-04-22T09:10:19.435Z,516.00
2023-04-22T09:11:18.796Z,533.00
2023-04-22T09:12:19.434Z,531.00
2023-04-22T09:13:18.908Z,521.00
2023-04-22T09:14:18.958Z,527.00
2023-04-22T09:15:19.020Z,510.00
2023-04-22T09:16:19.081Z,515.00
2023-04-22T09:17:19.190Z,523.00
2023-04-22T09:18:19.918Z,523.00
2023-04-22T09:19:19.244Z,523.00
2023-04-22T09:20:20.084Z,525.00
2023-04-22T09:21:19.347Z,514.00
2023-04-22T09:22:19.403Z,526.00
2023-04-22T09:23:20.411Z,521.00
2023-04-22T09:24:19.528Z,519.00
2023-04-22T09:25:20.429Z,521.00
2023-04-22T09:26:19.649Z,517.00
2023-04-22T09:27:19.705Z,528.00
2023-04-22T09:28:19.772Z,517.00
2023-04-22T09:29:19.820Z,519.00
2023-04-22T09:30:19.881Z,523.00
2023-04-22T09:31:20.441Z,516.00
2023-04-22T09:32:20.017Z,514.00
2023-04-22T09:33:20.956Z,515.00
2023-04-22T09:34:20.122Z,520.00
2023-04-22T09:35:20.185Z,520.00
2023-04-22T09:36:20.249Z,524.00
2023-04-22T09:37:20.336Z,521.00
2023-04-22T09:38:20.368Z,522.00
2023-04-22T09:39:20.423Z,516.00
2023-04-22T09:40:20.484Z,521.00
2023-04-22T09:41:20.547Z,527.00
2023-04-22T09:42:20.610Z,532.00
2023-04-22T09:43:20.665Z,517.00
2023-04-22T09:44:20.728Z,513.00
2023-04-22T09:45:20.779Z,524.00
2023-04-22T09:46:20.982Z,523.00
2023-04-22T09:47:20.902Z,524.00
2023-04-22T09:48:20.940Z,522.00
2023-04-22T09:49:21.037Z,521.00
2023-04-22T09:50:21.081Z,519.00
2023-04-22T09:51:21.123Z,530.00
2023-04-22T09:52:21.188Z,514.00
2023-04-22T09:53:21.264Z,515.00
2023-04-22T09:54:21.304Z,523.00
2023-04-22T09:55:22.127Z,522.00
2023-04-22T09:56:21.427Z,526.00
2023-04-22T09:57:21.483Z,516.00
2023-04-22T09:58:21.554Z,524.00
2023-04-22T09:59:21.630Z,535.00
2023-04-22T10:00:21.654Z,520.00
2023-04-22T10:01:21.754Z,529.00
2023-04-22T10:02:22.180Z,526.00
2023-04-22T10:03:22.172Z,526.00
2023-04-22T10:04:22.240Z,523.00
2023-04-22T10:05:22.158Z,529.00
2023-04-22T10:06:22.127Z,519.00
2023-04-22T10:07:22.124Z,520.00
2023-04-22T10:08:22.155Z,533.00
2023-04-22T10:09:22.196Z,524.00
2023-04-22T10:10:22.257Z,518.00
2023-04-22T10:11:22.326Z,540.00
2023-04-22T10:12:32.949Z,524.00
2023-04-22T10:13:23.025Z,525.00
2023-04-22T10:14:22.369Z,524.00
2023-04-22T10:15:23.489Z,525.00
2023-04-22T10:16:22.379Z,524.00
2023-04-22T10:17:22.377Z,525.00
2023-04-22T10:18:22.330Z,525.00
2023-04-22T10:19:22.350Z,524.00
2023-04-22T10:20:22.315Z,522.00
2023-04-22T10:21:22.668Z,518.00
2023-04-22T10:22:22.299Z,526.00
2023-04-22T10:23:22.310Z,530.00
2023-04-22T10:24:22.285Z,519.00
2023-04-22T10:25:22.275Z,527.00
2023-04-22T10:26:22.264Z,534.00
2023-04-22T10:27:22.286Z,528.00
2023-04-22T10:28:22.342Z,523.00
2023-04-22T10:29:22.409Z,537.00
2023-04-22T10:30:22.471Z,518.00
2023-04-22T10:31:22.627Z,525.00
2023-04-22T10:32:22.593Z,519.00
2023-04-22T10:33:23.015Z,526.00
2023-04-22T10:34:23.016Z,526.00
2023-04-22T10:35:23.010Z,536.00
2023-04-22T10:36:23.008Z,524.00
2023-04-22T10:37:23.033Z,522.00
2023-04-22T10:38:23.013Z,528.00
2023-04-22T10:39:23.008Z,526.00
2023-04-22T10:40:23.072Z,536.00
2023-04-22T10:41:23.134Z,524.00
2023-04-22T10:42:23.183Z,524.00
2023-04-22T10:43:23.245Z,521.00
2023-04-22T10:44:23.315Z,530.00
2023-04-22T10:45:23.375Z,530.00
2023-04-22T10:46:23.506Z,532.00
2023-04-22T10:47:23.529Z,525.00
2023-04-22T10:48:23.544Z,532.00
2023-04-22T10:49:24.442Z,523.00
2023-04-22T10:50:23.672Z,535.00
2023-04-22T10:51:23.734Z,529.00
2023-04-22T10:52:23.789Z,529.00
2023-04-22T10:53:23.881Z,529.00
2023-04-22T10:54:23.912Z,544.00
2023-04-22T10:55:24.002Z,530.00
2023-04-22T10:56:24.217Z,533.00
2023-04-22T10:57:24.092Z,523.00
2023-04-22T10:58:24.163Z,531.00
2023-04-22T10:59:24.213Z,532.00
2023-04-22T11:00:24.279Z,535.00
2023-04-22T11:01:24.369Z,528.00
2023-04-22T11:02:27.070Z,536.00
2023-04-22T11:03:24.560Z,531.00
2023-04-22T11:04:24.483Z,528.00
2023-04-22T11:05:25.990Z,524.00
2023-04-22T11:06:24.369Z,524.00
2023-04-22T11:07:24.384Z,527.00
2023-04-22T11:08:24.360Z,526.00
2023-04-22T11:09:24.376Z,534.00
2023-04-22T11:10:24.349Z,549.00
2023-04-22T11:11:24.339Z,530.00
2023-04-22T11:12:24.337Z,527.00
2023-04-22T11:13:24.323Z,529.00
2023-04-22T11:14:24.322Z,531.00
2023-04-22T11:15:24.309Z,538.00
2023-04-22T11:16:24.388Z,528.00
2023-04-22T11:17:24.311Z,537.00
2023-04-22T11:18:24.296Z,536.00
2023-04-22T11:19:24.274Z,525.00
2023-04-22T11:20:24.281Z,525.00
2023-04-22T11:21:24.967Z,538.00
2023-04-22T11:22:24.264Z,532.00
2023-04-22T11:23:24.248Z,534.00
2023-04-22T11:24:24.250Z,526.00
2023-04-22T11:25:24.256Z,532.00
2023-04-22T11:26:24.226Z,539.00
2023-04-22T11:27:24.280Z,532.00
2023-04-22T11:28:24.332Z,530.00
2023-04-22T11:29:24.378Z,530.00
2023-04-22T11:30:24.440Z,531.00
2023-04-22T11:31:24.513Z,523.00
2023-04-22T11:32:24.594Z,538.00
2023-04-22T11:33:24.620Z,528.00
2023-04-22T11:34:24.664Z,530.00
2023-04-22T11:35:24.734Z,535.00
2023-04-22T11:36:24.790Z,528.00
2023-04-22T11:37:24.850Z,535.00
2023-04-22T11:38:24.894Z,529.00
2023-04-22T11:39:24.961Z,530.00
2023-04-22T11:41:24.032Z,526.00
2023-04-22T11:42:24.989Z,527.00
2023-04-22T11:43:25.011Z,530.00
2023-04-22T11:44:24.977Z,527.00
2023-04-22T11:45:24.973Z,546.00
2023-04-22T11:46:24.981Z,536.00
2023-04-22T11:47:24.968Z,531.00
2023-04-22T11:48:25.483Z,534.00
2023-04-22T11:49:24.939Z,535.00
2023-04-22T11:50:25.471Z,531.00
2023-04-22T11:51:24.938Z,529.00
2023-04-22T11:52:24.926Z,534.00
2023-04-22T11:53:24.918Z,529.00
2023-04-22T11:54:24.911Z,537.00
2023-04-22T11:55:24.911Z,527.00
2023-04-22T11:56:24.908Z,541.00
2023-04-22T11:57:24.918Z,539.00
2023-04-22T11:58:24.900Z,541.00
2023-04-22T11:59:24.880Z,538.00
2023-04-22T12:00:24.870Z,538.00
2023-04-22T12:01:24.867Z,532.00
2023-04-22T12:02:25.049Z,540.00
2023-04-22T12:03:25.171Z,533.00
2023-04-22T12:04:24.892Z,533.00
2023-04-22T12:05:24.903Z,540.00
2023-04-22T12:06:24.907Z,535.00
2023-04-22T12:07:24.952Z,536.00
2023-04-22T12:08:25.001Z,546.00
2023-04-22T12:09:25.058Z,538.00
2023-04-22T12:10:25.127Z,529.00
2023-04-22T12:11:25.155Z,539.00
2023-04-22T12:12:25.218Z,534.00
2023-04-22T12:13:25.294Z,540.00
2023-04-22T12:14:25.301Z,536.00
2023-04-22T12:15:25.350Z,544.00
2023-04-22T12:16:25.412Z,546.00
2023-04-22T12:17:25.505Z,546.00
2023-04-22T12:18:25.499Z,537.00
2023-04-22T12:19:25.546Z,536.00
2023-04-22T12:20:25.606Z,547.00
2023-04-22T12:21:25.662Z,541.00
2023-04-22T12:22:25.703Z,540.00
2023-04-22T12:23:25.764Z,542.00
2023-04-22T12:24:25.801Z,547.00
2023-04-22T12:25:25.848Z,538.00
2023-04-22T12:26:27.143Z,537.00
2023-04-22T12:27:25.887Z,546.00
2023-04-22T12:28:25.878Z,551.00
2023-04-22T12:29:25.896Z,542.00
2023-04-22T12:30:25.865Z,543.00